sensor_id;sensor_type;location;lat;lon;timestamp;pressure;altitude;pressure_sealevel;temperature
73937;BMP180;59249;59.736;30.568;2023-05-16T00:01:18;101428.00;;;12.80
73937;BMP180;59249;59.736;30.568;2023-05-16T00:03:48;101428.00;;;12.80
73937;BMP180;59249;59.736;30.568;2023-05-16T00:06:17;101425.00;;;12.80
73937;BMP180;59249;59.736;30.568;2023-05-16T00:08:46;101421.00;;;12.80
73937;BMP180;59249;59.736;30.568;2023-05-16T00:11:17;101421.00;;;12.70
73937;BMP180;59249;59.736;30.568;2023-05-16T00:13:46;101415.00;;;12.70
73937;BMP180;59249;59.736;30.568;2023-05-16T00:16:15;101415.00;;;12.60
73937;BMP180;59249;59.736;30.568;2023-05-16T00:18:44;101416.00;;;12.60
73937;BMP180;59249;59.736;30.568;2023-05-16T00:21:13;101416.00;;;12.60
73937;BMP180;59249;59.736;30.568;2023-05-16T00:23:42;101412.00;;;12.60
73937;BMP180;59249;59.736;30.568;2023-05-16T00:26:11;101411.00;;;12.50
73937;BMP180;59249;59.736;30.568;2023-05-16T00:28:42;101395.00;;;12.50
73937;BMP180;59249;59.736;30.568;2023-05-16T00:31:11;101393.00;;;12.50
73937;BMP180;59249;59.736;30.568;2023-05-16T00:33:40;101400.00;;;12.50
73937;BMP180;59249;59.736;30.568;2023-05-16T00:36:09;101404.00;;;12.50
73937;BMP180;59249;59.736;30.568;2023-05-16T00:38:38;101404.00;;;12.40
73937;BMP180;59249;59.736;30.568;2023-05-16T00:41:07;101401.00;;;12.40
73937;BMP180;59249;59.736;30.568;2023-05-16T00:43:37;101402.00;;;12.30
73937;BMP180;59249;59.736;30.568;2023-05-16T00:46:08;101402.00;;;12.30
73937;BMP180;59249;59.736;30.568;2023-05-16T00:48:37;101404.00;;;12.30
73937;BMP180;59249;59.736;30.568;2023-05-16T00:51:06;101400.00;;;12.30
73937;BMP180;59249;59.736;30.568;2023-05-16T00:53:36;101394.00;;;12.20
73937;BMP180;59249;59.736;30.568;2023-05-16T00:56:05;101391.00;;;12.20
73937;BMP180;59249;59.736;30.568;2023-05-16T00:58:34;101388.00;;;12.20
73937;BMP180;59249;59.736;30.568;2023-05-16T01:01:04;101396.00;;;12.20
73937;BMP180;59249;59.736;30.568;2023-05-16T01:03:35;101392.00;;;12.20
73937;BMP180;59249;59.736;30.568;2023-05-16T01:06:05;101394.00;;;12.10
73937;BMP180;59249;59.736;30.568;2023-05-16T01:08:34;101387.00;;;12.10
73937;BMP180;59249;59.736;30.568;2023-05-16T01:11:07;101379.00;;;12.10
73937;BMP180;59249;59.736;30.568;2023-05-16T01:13:47;101377.00;;;12.10
73937;BMP180;59249;59.736;30.568;2023-05-16T01:16:28;101383.00;;;12.00
73937;BMP180;59249;59.736;30.568;2023-05-16T01:19:12;101386.00;;;12.00
73937;BMP180;59249;59.736;30.568;2023-05-16T01:21:48;101384.00;;;11.90
73937;BMP180;59249;59.736;30.568;2023-05-16T01:24:32;101383.00;;;11.90
73937;BMP180;59249;59.736;30.568;2023-05-16T01:27:09;101387.00;;;11.90
73937;BMP180;59249;59.736;30.568;2023-05-16T01:29:40;101380.00;;;11.90
73937;BMP180;59249;59.736;30.568;2023-05-16T01:32:09;101379.00;;;12.00
73937;BMP180;59249;59.736;30.568;2023-05-16T01:34:40;101382.00;;;11.90
73937;BMP180;59249;59.736;30.568;2023-05-16T01:37:15;101376.00;;;12.00
73937;BMP180;59249;59.736;30.568;2023-05-16T01:39:54;101375.00;;;12.00
73937;BMP180;59249;59.736;30.568;2023-05-16T01:42:40;101370.00;;;12.00
73937;BMP180;59249;59.736;30.568;2023-05-16T01:45:19;101371.00;;;12.00
73937;BMP180;59249;59.736;30.568;2023-05-16T01:47:56;101372.00;;;12.00
73937;BMP180;59249;59.736;30.568;2023-05-16T01:50:31;101371.00;;;12.00
73937;BMP180;59249;59.736;30.568;2023-05-16T01:53:06;101366.00;;;12.00
73937;BMP180;59249;59.736;30.568;2023-05-16T01:55:42;101363.00;;;12.00
73937;BMP180;59249;59.736;30.568;2023-05-16T01:58:15;101359.00;;;12.00
73937;BMP180;59249;59.736;30.568;2023-05-16T02:00:48;101357.00;;;12.00
73937;BMP180;59249;59.736;30.568;2023-05-16T02:03:17;101355.00;;;12.20
73937;BMP180;59249;59.736;30.568;2023-05-16T02:05:46;101352.00;;;12.50
73937;BMP180;59249;59.736;30.568;2023-05-16T02:08:14;101345.00;;;12.70
73937;BMP180;59249;59.736;30.568;2023-05-16T02:10:43;101365.00;;;13.00
73937;BMP180;59249;59.736;30.568;2023-05-16T02:13:13;101361.00;;;13.30
73937;BMP180;59249;59.736;30.568;2023-05-16T02:15:42;101367.00;;;13.60
73937;BMP180;59249;59.736;30.568;2023-05-16T02:18:12;101370.00;;;13.80
73937;BMP180;59249;59.736;30.568;2023-05-16T02:20:42;101370.00;;;14.00
73937;BMP180;59249;59.736;30.568;2023-05-16T02:23:11;101371.00;;;14.20
73937;BMP180;59249;59.736;30.568;2023-05-16T02:25:40;101379.00;;;14.40
73937;BMP180;59249;59.736;30.568;2023-05-16T02:28:09;101376.00;;;14.60
73937;BMP180;59249;59.736;30.568;2023-05-16T02:30:39;101379.00;;;14.90
73937;BMP180;59249;59.736;30.568;2023-05-16T02:33:09;101376.00;;;15.10
73937;BMP180;59249;59.736;30.568;2023-05-16T02:35:38;101371.00;;;15.30
73937;BMP180;59249;59.736;30.568;2023-05-16T02:38:08;101370.00;;;15.50
73937;BMP180;59249;59.736;30.568;2023-05-16T02:40:36;101368.00;;;15.50
73937;BMP180;59249;59.736;30.568;2023-05-16T02:43:05;101359.00;;;15.80
73937;BMP180;59249;59.736;30.568;2023-05-16T02:45:34;101359.00;;;15.90
73937;BMP180;59249;59.736;30.568;2023-05-16T02:48:05;101365.00;;;16.10
73937;BMP180;59249;59.736;30.568;2023-05-16T02:50:34;101366.00;;;16.30
73937;BMP180;59249;59.736;30.568;2023-05-16T02:53:03;101361.00;;;16.30
73937;BMP180;59249;59.736;30.568;2023-05-16T02:55:32;101363.00;;;16.30
73937;BMP180;59249;59.736;30.568;2023-05-16T02:58:01;101358.00;;;16.50
73937;BMP180;59249;59.736;30.568;2023-05-16T03:00:30;101352.00;;;16.40
73937;BMP180;59249;59.736;30.568;2023-05-16T03:02:58;101348.00;;;16.60
73937;BMP180;59249;59.736;30.568;2023-05-16T03:05:29;101357.00;;;16.80
73937;BMP180;59249;59.736;30.568;2023-05-16T03:07:58;101351.00;;;17.10
73937;BMP180;59249;59.736;30.568;2023-05-16T03:10:27;101350.00;;;17.00
73937;BMP180;59249;59.736;30.568;2023-05-16T03:12:56;101350.00;;;17.20
73937;BMP180;59249;59.736;30.568;2023-05-16T03:15:25;101342.00;;;17.30
73937;BMP180;59249;59.736;30.568;2023-05-16T03:17:54;101343.00;;;17.20
73937;BMP180;59249;59.736;30.568;2023-05-16T03:20:25;101342.00;;;17.10
73937;BMP180;59249;59.736;30.568;2023-05-16T03:22:57;101331.00;;;16.70
73937;BMP180;59249;59.736;30.568;2023-05-16T03:25:25;101333.00;;;16.40
73937;BMP180;59249;59.736;30.568;2023-05-16T03:27:55;101336.00;;;16.30
73937;BMP180;59249;59.736;30.568;2023-05-16T03:30:24;101342.00;;;16.10
73937;BMP180;59249;59.736;30.568;2023-05-16T03:32:53;101335.00;;;15.90
73937;BMP180;59249;59.736;30.568;2023-05-16T03:35:23;101341.00;;;15.80
73937;BMP180;59249;59.736;30.568;2023-05-16T03:37:53;101334.00;;;15.70
73937;BMP180;59249;59.736;30.568;2023-05-16T03:40:23;101333.00;;;15.70
73937;BMP180;59249;59.736;30.568;2023-05-16T03:42:53;101331.00;;;15.50
73937;BMP180;59249;59.736;30.568;2023-05-16T03:45:21;101327.00;;;15.40
73937;BMP180;59249;59.736;30.568;2023-05-16T03:47:50;101324.00;;;15.30
73937;BMP180;59249;59.736;30.568;2023-05-16T03:50:19;101318.00;;;15.10
73937;BMP180;59249;59.736;30.568;2023-05-16T03:52:48;101319.00;;;15.10
73937;BMP180;59249;59.736;30.568;2023-05-16T03:55:18;101319.00;;;15.00
73937;BMP180;59249;59.736;30.568;2023-05-16T03:57:49;101322.00;;;15.10
73937;BMP180;59249;59.736;30.568;2023-05-16T04:00:18;101319.00;;;15.10
73937;BMP180;59249;59.736;30.568;2023-05-16T04:02:47;101317.00;;;15.20
73937;BMP180;59249;59.736;30.568;2023-05-16T04:05:16;101315.00;;;15.20
73937;BMP180;59249;59.736;30.568;2023-05-16T04:07:45;101319.00;;;15.30
73937;BMP180;59249;59.736;30.568;2023-05-16T04:10:14;101314.00;;;15.40
73937;BMP180;59249;59.736;30.568;2023-05-16T04:12:43;101317.00;;;15.50
73937;BMP180;59249;59.736;30.568;2023-05-16T04:15:16;101314.00;;;15.60
73937;BMP180;59249;59.736;30.568;2023-05-16T04:17:47;101314.00;;;15.90
73937;BMP180;59249;59.736;30.568;2023-05-16T04:20:22;101316.00;;;16.00
73937;BMP180;59249;59.736;30.568;2023-05-16T04:22:52;101317.00;;;16.00
73937;BMP180;59249;59.736;30.568;2023-05-16T04:25:21;101311.00;;;16.10
73937;BMP180;59249;59.736;30.568;2023-05-16T04:27:52;101306.00;;;16.20
73937;BMP180;59249;59.736;30.568;2023-05-16T04:30:22;101311.00;;;16.30
73937;BMP180;59249;59.736;30.568;2023-05-16T04:32:52;101306.00;;;16.40
73937;BMP180;59249;59.736;30.568;2023-05-16T04:35:21;101306.00;;;16.50
73937;BMP180;59249;59.736;30.568;2023-05-16T04:37:51;101299.00;;;16.50
73937;BMP180;59249;59.736;30.568;2023-05-16T04:40:22;101306.00;;;16.60
73937;BMP180;59249;59.736;30.568;2023-05-16T04:42:52;101300.00;;;16.50
73937;BMP180;59249;59.736;30.568;2023-05-16T04:45:25;101306.00;;;16.60
73937;BMP180;59249;59.736;30.568;2023-05-16T04:47:54;101302.00;;;16.80
73937;BMP180;59249;59.736;30.568;2023-05-16T04:50:31;101306.00;;;16.90
73937;BMP180;59249;59.736;30.568;2023-05-16T04:53:02;101301.00;;;17.00
73937;BMP180;59249;59.736;30.568;2023-05-16T04:55:31;101308.00;;;17.20
73937;BMP180;59249;59.736;30.568;2023-05-16T04:58:02;101306.00;;;17.40
73937;BMP180;59249;59.736;30.568;2023-05-16T05:00:33;101311.00;;;17.50
73937;BMP180;59249;59.736;30.568;2023-05-16T05:03:05;101306.00;;;17.60
73937;BMP180;59249;59.736;30.568;2023-05-16T05:05:37;101306.00;;;17.80
73937;BMP180;59249;59.736;30.568;2023-05-16T05:08:07;101306.00;;;17.90
73937;BMP180;59249;59.736;30.568;2023-05-16T05:10:37;101298.00;;;18.00
73937;BMP180;59249;59.736;30.568;2023-05-16T05:13:07;101303.00;;;18.10
73937;BMP180;59249;59.736;30.568;2023-05-16T05:15:38;101304.00;;;18.30
73937;BMP180;59249;59.736;30.568;2023-05-16T05:18:10;101302.00;;;18.40
73937;BMP180;59249;59.736;30.568;2023-05-16T05:20:49;101289.00;;;18.50
73937;BMP180;59249;59.736;30.568;2023-05-16T05:23:18;101288.00;;;18.70
73937;BMP180;59249;59.736;30.568;2023-05-16T05:25:50;101296.00;;;18.80
73937;BMP180;59249;59.736;30.568;2023-05-16T05:28:21;101285.00;;;18.90
73937;BMP180;59249;59.736;30.568;2023-05-16T05:31:12;101277.00;;;19.10
73937;BMP180;59249;59.736;30.568;2023-05-16T05:33:47;101283.00;;;19.20
73937;BMP180;59249;59.736;30.568;2023-05-16T05:36:18;101282.00;;;19.40
73937;BMP180;59249;59.736;30.568;2023-05-16T05:38:49;101284.00;;;19.50
73937;BMP180;59249;59.736;30.568;2023-05-16T05:41:45;101285.00;;;19.50
73937;BMP180;59249;59.736;30.568;2023-05-16T05:44:16;101279.00;;;19.70
73937;BMP180;59249;59.736;30.568;2023-05-16T05:46:52;101278.00;;;19.70
73937;BMP180;59249;59.736;30.568;2023-05-16T05:49:31;101281.00;;;19.90
73937;BMP180;59249;59.736;30.568;2023-05-16T05:52:04;101282.00;;;20.00
73937;BMP180;59249;59.736;30.568;2023-05-16T05:54:40;101269.00;;;20.00
73937;BMP180;59249;59.736;30.568;2023-05-16T05:57:08;101276.00;;;20.10
73937;BMP180;59249;59.736;30.568;2023-05-16T05:59:38;101275.00;;;20.10
73937;BMP180;59249;59.736;30.568;2023-05-16T06:02:16;101281.00;;;20.20
73937;BMP180;59249;59.736;30.568;2023-05-16T06:05:00;101274.00;;;20.20
73937;BMP180;59249;59.736;30.568;2023-05-16T06:07:39;101271.00;;;20.30
73937;BMP180;59249;59.736;30.568;2023-05-16T06:10:37;101276.00;;;20.20
73937;BMP180;59249;59.736;30.568;2023-05-16T06:13:26;101270.00;;;20.30
73937;BMP180;59249;59.736;30.568;2023-05-16T06:15:56;101262.00;;;20.40
73937;BMP180;59249;59.736;30.568;2023-05-16T06:18:28;101265.00;;;20.40
73937;BMP180;59249;59.736;30.568;2023-05-16T06:20:57;101269.00;;;20.50
73937;BMP180;59249;59.736;30.568;2023-05-16T06:23:26;101260.00;;;20.50
73937;BMP180;59249;59.736;30.568;2023-05-16T06:26:04;101255.00;;;20.60
73937;BMP180;59249;59.736;30.568;2023-05-16T06:28:33;101259.00;;;20.80
73937;BMP180;59249;59.736;30.568;2023-05-16T06:31:11;101262.00;;;20.90
73937;BMP180;59249;59.736;30.568;2023-05-16T06:33:44;101257.00;;;20.90
73937;BMP180;59249;59.736;30.568;2023-05-16T06:36:17;101253.00;;;21.00
73937;BMP180;59249;59.736;30.568;2023-05-16T06:39:04;101254.00;;;21.10
73937;BMP180;59249;59.736;30.568;2023-05-16T06:41:42;101238.00;;;21.10
73937;BMP180;59249;59.736;30.568;2023-05-16T06:44:15;101242.00;;;21.10
73937;BMP180;59249;59.736;30.568;2023-05-16T06:46:44;101235.00;;;21.20
73937;BMP180;59249;59.736;30.568;2023-05-16T06:49:18;101238.00;;;21.30
73937;BMP180;59249;59.736;30.568;2023-05-16T06:51:48;101238.00;;;21.40
73937;BMP180;59249;59.736;30.568;2023-05-16T06:54:17;101237.00;;;21.50
73937;BMP180;59249;59.736;30.568;2023-05-16T06:56:47;101234.00;;;21.50
73937;BMP180;59249;59.736;30.568;2023-05-16T06:59:18;101237.00;;;21.60
73937;BMP180;59249;59.736;30.568;2023-05-16T07:01:48;101238.00;;;21.60
73937;BMP180;59249;59.736;30.568;2023-05-16T07:04:32;101236.00;;;21.70
73937;BMP180;59249;59.736;30.568;2023-05-16T07:07:20;101241.00;;;21.70
73937;BMP180;59249;59.736;30.568;2023-05-16T07:10:08;101230.00;;;21.80
73937;BMP180;59249;59.736;30.568;2023-05-16T07:12:49;101232.00;;;21.90
73937;BMP180;59249;59.736;30.568;2023-05-16T07:15:22;101224.00;;;21.80
73937;BMP180;59249;59.736;30.568;2023-05-16T07:17:54;101220.00;;;21.80
73937;BMP180;59249;59.736;30.568;2023-05-16T07:20:24;101224.00;;;21.90
73937;BMP180;59249;59.736;30.568;2023-05-16T07:23:12;101233.00;;;22.00
73937;BMP180;59249;59.736;30.568;2023-05-16T07:25:42;101220.00;;;21.90
73937;BMP180;59249;59.736;30.568;2023-05-16T07:28:14;101230.00;;;22.00
73937;BMP180;59249;59.736;30.568;2023-05-16T07:30:55;101217.00;;;22.00
73937;BMP180;59249;59.736;30.568;2023-05-16T07:33:33;101223.00;;;22.10
73937;BMP180;59249;59.736;30.568;2023-05-16T07:36:22;101226.00;;;22.10
73937;BMP180;59249;59.736;30.568;2023-05-16T07:38:57;101224.00;;;22.30
73937;BMP180;59249;59.736;30.568;2023-05-16T07:41:44;101221.00;;;22.30
73937;BMP180;59249;59.736;30.568;2023-05-16T07:44:16;101211.00;;;22.50
73937;BMP180;59249;59.736;30.568;2023-05-16T07:46:57;101223.00;;;22.50
73937;BMP180;59249;59.736;30.568;2023-05-16T07:49:33;101227.00;;;22.60
73937;BMP180;59249;59.736;30.568;2023-05-16T07:52:22;101225.00;;;22.60
73937;BMP180;59249;59.736;30.568;2023-05-16T07:54:55;101213.00;;;22.70
73937;BMP180;59249;59.736;30.568;2023-05-16T07:57:33;101212.00;;;22.70
73937;BMP180;59249;59.736;30.568;2023-05-16T08:00:11;101214.00;;;22.80
73937;BMP180;59249;59.736;30.568;2023-05-16T08:02:46;101222.00;;;22.70
73937;BMP180;59249;59.736;30.568;2023-05-16T08:05:16;101220.00;;;22.90
73937;BMP180;59249;59.736;30.568;2023-05-16T08:07:52;101225.00;;;22.90
73937;BMP180;59249;59.736;30.568;2023-05-16T08:10:23;101227.00;;;22.90
73937;BMP180;59249;59.736;30.568;2023-05-16T08:12:56;101214.00;;;22.90
73937;BMP180;59249;59.736;30.568;2023-05-16T08:15:37;101223.00;;;23.00
73937;BMP180;59249;59.736;30.568;2023-05-16T08:18:12;101218.00;;;23.20
73937;BMP180;59249;59.736;30.568;2023-05-16T08:20:59;101217.00;;;23.10
73937;BMP180;59249;59.736;30.568;2023-05-16T08:23:33;101215.00;;;23.40
73937;BMP180;59249;59.736;30.568;2023-05-16T08:26:23;101210.00;;;23.50
73937;BMP180;59249;59.736;30.568;2023-05-16T08:28:53;101203.00;;;23.50
73937;BMP180;59249;59.736;30.568;2023-05-16T08:31:24;101189.00;;;23.40
73937;BMP180;59249;59.736;30.568;2023-05-16T08:34:10;101205.00;;;23.50
73937;BMP180;59249;59.736;30.568;2023-05-16T08:36:49;101203.00;;;23.40
73937;BMP180;59249;59.736;30.568;2023-05-16T08:39:28;101204.00;;;23.50
73937;BMP180;59249;59.736;30.568;2023-05-16T08:41:59;101193.00;;;23.60
73937;BMP180;59249;59.736;30.568;2023-05-16T08:44:30;101206.00;;;23.80
73937;BMP180;59249;59.736;30.568;2023-05-16T08:47:10;101202.00;;;23.90
73937;BMP180;59249;59.736;30.568;2023-05-16T08:49:43;101197.00;;;24.10
73937;BMP180;59249;59.736;30.568;2023-05-16T08:52:18;101203.00;;;24.00
73937;BMP180;59249;59.736;30.568;2023-05-16T08:55:04;101196.00;;;23.90
73937;BMP180;59249;59.736;30.568;2023-05-16T08:57:44;101193.00;;;23.90
73937;BMP180;59249;59.736;30.568;2023-05-16T09:00:21;101189.00;;;23.90
73937;BMP180;59249;59.736;30.568;2023-05-16T09:02:51;101187.00;;;23.90
73937;BMP180;59249;59.736;30.568;2023-05-16T09:05:22;101181.00;;;23.90
73937;BMP180;59249;59.736;30.568;2023-05-16T09:07:57;101176.00;;;23.80
73937;BMP180;59249;59.736;30.568;2023-05-16T09:10:35;101179.00;;;23.80
73937;BMP180;59249;59.736;30.568;2023-05-16T09:13:09;101173.00;;;23.90
73937;BMP180;59249;59.736;30.568;2023-05-16T09:15:39;101175.00;;;24.00
73937;BMP180;59249;59.736;30.568;2023-05-16T09:18:11;101177.00;;;24.00
73937;BMP180;59249;59.736;30.568;2023-05-16T09:20:42;101180.00;;;24.00
73937;BMP180;59249;59.736;30.568;2023-05-16T09:23:23;101167.00;;;23.90
73937;BMP180;59249;59.736;30.568;2023-05-16T09:25:58;101173.00;;;24.00
73937;BMP180;59249;59.736;30.568;2023-05-16T09:28:28;101179.00;;;24.20
73937;BMP180;59249;59.736;30.568;2023-05-16T09:30:59;101172.00;;;24.30
73937;BMP180;59249;59.736;30.568;2023-05-16T09:33:30;101175.00;;;24.30
73937;BMP180;59249;59.736;30.568;2023-05-16T09:36:01;101172.00;;;24.50
73937;BMP180;59249;59.736;30.568;2023-05-16T09:38:31;101175.00;;;24.40
73937;BMP180;59249;59.736;30.568;2023-05-16T09:41:01;101164.00;;;24.40
73937;BMP180;59249;59.736;30.568;2023-05-16T09:43:33;101164.00;;;24.30
73937;BMP180;59249;59.736;30.568;2023-05-16T09:46:11;101171.00;;;24.40
73937;BMP180;59249;59.736;30.568;2023-05-16T09:48:44;101169.00;;;24.50
73937;BMP180;59249;59.736;30.568;2023-05-16T09:51:15;101167.00;;;24.40
73937;BMP180;59249;59.736;30.568;2023-05-16T09:53:51;101157.00;;;24.50
73937;BMP180;59249;59.736;30.568;2023-05-16T09:56:24;101161.00;;;24.50
73937;BMP180;59249;59.736;30.568;2023-05-16T09:58:57;101159.00;;;24.60
73937;BMP180;59249;59.736;30.568;2023-05-16T10:01:27;101162.00;;;24.60
73937;BMP180;59249;59.736;30.568;2023-05-16T10:03:59;101149.00;;;24.50
73937;BMP180;59249;59.736;30.568;2023-05-16T10:06:29;101145.00;;;24.60
73937;BMP180;59249;59.736;30.568;2023-05-16T10:08:59;101144.00;;;24.70
73937;BMP180;59249;59.736;30.568;2023-05-16T10:11:35;101136.00;;;24.50
73937;BMP180;59249;59.736;30.568;2023-05-16T10:14:10;101136.00;;;24.60
73937;BMP180;59249;59.736;30.568;2023-05-16T10:16:46;101128.00;;;24.70
73937;BMP180;59249;59.736;30.568;2023-05-16T10:19:27;101142.00;;;24.70
73937;BMP180;59249;59.736;30.568;2023-05-16T10:22:06;101129.00;;;24.60
73937;BMP180;59249;59.736;30.568;2023-05-16T10:24:43;101125.00;;;24.60
73937;BMP180;59249;59.736;30.568;2023-05-16T10:27:19;101120.00;;;24.70
73937;BMP180;59249;59.736;30.568;2023-05-16T10:29:53;101116.00;;;24.80
73937;BMP180;59249;59.736;30.568;2023-05-16T10:32:31;101120.00;;;25.00
73937;BMP180;59249;59.736;30.568;2023-05-16T10:35:20;101120.00;;;25.10
73937;BMP180;59249;59.736;30.568;2023-05-16T10:37:56;101111.00;;;25.10
73937;BMP180;59249;59.736;30.568;2023-05-16T10:40:36;101111.00;;;25.30
73937;BMP180;59249;59.736;30.568;2023-05-16T10:43:24;101107.00;;;25.20
73937;BMP180;59249;59.736;30.568;2023-05-16T10:45:57;101106.00;;;25.30
73937;BMP180;59249;59.736;30.568;2023-05-16T10:48:32;101104.00;;;25.50
73937;BMP180;59249;59.736;30.568;2023-05-16T10:51:35;101109.00;;;25.50
73937;BMP180;59249;59.736;30.568;2023-05-16T10:54:09;101108.00;;;25.70
73937;BMP180;59249;59.736;30.568;2023-05-16T10:56:55;101108.00;;;25.50
73937;BMP180;59249;59.736;30.568;2023-05-16T10:59:27;101114.00;;;25.40
73937;BMP180;59249;59.736;30.568;2023-05-16T11:01:59;101114.00;;;25.50
73937;BMP180;59249;59.736;30.568;2023-05-16T11:04:44;101105.00;;;25.50
73937;BMP180;59249;59.736;30.568;2023-05-16T11:07:19;101108.00;;;25.60
73937;BMP180;59249;59.736;30.568;2023-05-16T11:10:06;101105.00;;;25.60
73937;BMP180;59249;59.736;30.568;2023-05-16T11:12:47;101113.00;;;25.80
73937;BMP180;59249;59.736;30.568;2023-05-16T11:15:22;101102.00;;;25.80
73937;BMP180;59249;59.736;30.568;2023-05-16T11:18:06;101102.00;;;25.90
73937;BMP180;59249;59.736;30.568;2023-05-16T11:20:40;101102.00;;;25.90
73937;BMP180;59249;59.736;30.568;2023-05-16T11:23:24;101095.00;;;25.90
73937;BMP180;59249;59.736;30.568;2023-05-16T11:25:55;101095.00;;;25.90
73937;BMP180;59249;59.736;30.568;2023-05-16T11:28:27;101100.00;;;25.70
73937;BMP180;59249;59.736;30.568;2023-05-16T11:30:58;101096.00;;;25.60
73937;BMP180;59249;59.736;30.568;2023-05-16T11:33:30;101086.00;;;25.40
73937;BMP180;59249;59.736;30.568;2023-05-16T11:36:08;101087.00;;;25.40
73937;BMP180;59249;59.736;30.568;2023-05-16T11:38:42;101083.00;;;25.70
73937;BMP180;59249;59.736;30.568;2023-05-16T11:41:12;101075.00;;;25.70
73937;BMP180;59249;59.736;30.568;2023-05-16T11:43:44;101090.00;;;25.70
73937;BMP180;59249;59.736;30.568;2023-05-16T11:46:15;101084.00;;;25.60
73937;BMP180;59249;59.736;30.568;2023-05-16T11:48:50;101080.00;;;25.60
73937;BMP180;59249;59.736;30.568;2023-05-16T11:51:19;101080.00;;;25.60
73937;BMP180;59249;59.736;30.568;2023-05-16T11:53:51;101078.00;;;25.40
73937;BMP180;59249;59.736;30.568;2023-05-16T11:56:21;101072.00;;;25.40
73937;BMP180;59249;59.736;30.568;2023-05-16T11:58:50;101071.00;;;25.40
73937;BMP180;59249;59.736;30.568;2023-05-16T12:01:22;101073.00;;;25.10
73937;BMP180;59249;59.736;30.568;2023-05-16T12:03:54;101071.00;;;25.00
73937;BMP180;59249;59.736;30.568;2023-05-16T12:06:26;101070.00;;;25.00
73937;BMP180;59249;59.736;30.568;2023-05-16T12:08:57;101069.00;;;24.90
73937;BMP180;59249;59.736;30.568;2023-05-16T12:11:31;101060.00;;;24.70
73937;BMP180;59249;59.736;30.568;2023-05-16T12:14:01;101069.00;;;24.70
73937;BMP180;59249;59.736;30.568;2023-05-16T12:16:33;101066.00;;;24.60
73937;BMP180;59249;59.736;30.568;2023-05-16T12:19:05;101067.00;;;24.60
73937;BMP180;59249;59.736;30.568;2023-05-16T12:21:34;101066.00;;;24.60
73937;BMP180;59249;59.736;30.568;2023-05-16T12:24:08;101072.00;;;24.50
73937;BMP180;59249;59.736;30.568;2023-05-16T12:26:40;101065.00;;;24.40
73937;BMP180;59249;59.736;30.568;2023-05-16T12:29:10;101063.00;;;24.50
73937;BMP180;59249;59.736;30.568;2023-05-16T12:31:43;101048.00;;;24.50
73937;BMP180;59249;59.736;30.568;2023-05-16T12:34:21;101053.00;;;24.50
73937;BMP180;59249;59.736;30.568;2023-05-16T12:36:56;101053.00;;;24.20
73937;BMP180;59249;59.736;30.568;2023-05-16T12:39:36;101047.00;;;24.20
73937;BMP180;59249;59.736;30.568;2023-05-16T12:42:06;101045.00;;;24.20
73937;BMP180;59249;59.736;30.568;2023-05-16T12:44:37;101031.00;;;24.10
73937;BMP180;59249;59.736;30.568;2023-05-16T12:47:12;101039.00;;;24.10
73937;BMP180;59249;59.736;30.568;2023-05-16T12:49:44;101028.00;;;24.00
73937;BMP180;59249;59.736;30.568;2023-05-16T12:52:18;101035.00;;;24.10
73937;BMP180;59249;59.736;30.568;2023-05-16T12:54:54;101030.00;;;24.10
73937;BMP180;59249;59.736;30.568;2023-05-16T12:57:30;101023.00;;;24.20
73937;BMP180;59249;59.736;30.568;2023-05-16T13:00:03;101021.00;;;24.10
73937;BMP180;59249;59.736;30.568;2023-05-16T13:02:35;101020.00;;;24.00
73937;BMP180;59249;59.736;30.568;2023-05-16T13:05:05;101021.00;;;24.00
73937;BMP180;59249;59.736;30.568;2023-05-16T13:07:36;101027.00;;;24.00
73937;BMP180;59249;59.736;30.568;2023-05-16T13:10:11;101026.00;;;23.80
73937;BMP180;59249;59.736;30.568;2023-05-16T13:12:46;101026.00;;;23.90
73937;BMP180;59249;59.736;30.568;2023-05-16T13:15:17;101019.00;;;23.80
73937;BMP180;59249;59.736;30.568;2023-05-16T13:17:51;101011.00;;;23.80
73937;BMP180;59249;59.736;30.568;2023-05-16T13:20:23;101012.00;;;23.90
73937;BMP180;59249;59.736;30.568;2023-05-16T13:22:52;101005.00;;;24.00
73937;BMP180;59249;59.736;30.568;2023-05-16T13:25:23;101017.00;;;24.00
73937;BMP180;59249;59.736;30.568;2023-05-16T13:28:02;101004.00;;;24.00
73937;BMP180;59249;59.736;30.568;2023-05-16T13:30:34;101005.00;;;24.10
73937;BMP180;59249;59.736;30.568;2023-05-16T13:33:08;100999.00;;;24.10
73937;BMP180;59249;59.736;30.568;2023-05-16T13:35:38;101004.00;;;24.00
73937;BMP180;59249;59.736;30.568;2023-05-16T13:38:12;101002.00;;;24.00
73937;BMP180;59249;59.736;30.568;2023-05-16T13:40:49;100994.00;;;23.90
73937;BMP180;59249;59.736;30.568;2023-05-16T13:43:18;100996.00;;;23.70
73937;BMP180;59249;59.736;30.568;2023-05-16T13:45:57;100997.00;;;23.70
73937;BMP180;59249;59.736;30.568;2023-05-16T13:48:50;100990.00;;;23.60
73937;BMP180;59249;59.736;30.568;2023-05-16T13:51:35;100994.00;;;23.70
73937;BMP180;59249;59.736;30.568;2023-05-16T13:54:06;100986.00;;;23.60
73937;BMP180;59249;59.736;30.568;2023-05-16T13:56:39;100984.00;;;23.50
73937;BMP180;59249;59.736;30.568;2023-05-16T13:59:09;100980.00;;;23.50
73937;BMP180;59249;59.736;30.568;2023-05-16T14:01:47;100985.00;;;23.50
73937;BMP180;59249;59.736;30.568;2023-05-16T14:04:26;100981.00;;;23.50
73937;BMP180;59249;59.736;30.568;2023-05-16T14:07:38;100985.00;;;23.30
73937;BMP180;59249;59.736;30.568;2023-05-16T14:10:27;100983.00;;;23.40
73937;BMP180;59249;59.736;30.568;2023-05-16T14:13:02;100996.00;;;23.10
73937;BMP180;59249;59.736;30.568;2023-05-16T14:15:32;101004.00;;;22.60
73937;BMP180;59249;59.736;30.568;2023-05-16T14:18:03;100993.00;;;21.90
73937;BMP180;59249;59.736;30.568;2023-05-16T14:20:41;101008.00;;;21.60